Time;durP1;ratioP1;P1;durP2;ratioP2;P2;SDS_P1;SDS_P2;PMS_P1;PMS_P2;Temp;Humidity;BMP_temperature;BMP_pressure;BME280_temperature;BME280_humidity;BME280_pressure;Samples;Min_cycle;Max_cycle;Signal;HPM_P1;HPM_P2
2022/11/15 00:01:18;;;;;;;17.20;9.60;;;;;;;8.86;100.00;97785.78;5028068;28;20045;-57
2022/11/15 00:03:43;;;;;;;16.73;10.00;;;;;;;8.98;100.00;97793.13;5028257;28;20104;-57
2022/11/15 00:06:09;;;;;;;17.23;9.35;;;;;;;9.00;100.00;97793.91;5027769;28;20779;-58
2022/11/15 00:08:34;;;;;;;21.48;10.20;;;;;;;8.78;100.00;97790.41;5028880;28;20048;-58
2022/11/15 00:11:01;;;;;;;20.42;9.57;;;;;;;8.81;100.00;97787.72;5025819;28;20036;-59
2022/11/15 00:13:27;;;;;;;17.70;10.57;;;;;;;8.52;100.00;97781.81;5026381;28;20718;-58
2022/11/15 00:15:56;;;;;;;20.35;9.70;;;;;;;8.55;100.00;97786.06;5027856;28;20342;-61
2022/11/15 00:18:21;;;;;;;19.92;9.75;;;;;;;8.63;100.00;97779.66;5027802;28;20037;-56
2022/11/15 00:20:46;;;;;;;17.33;9.18;;;;;;;8.19;100.00;97778.63;5027065;28;20275;-58
2022/11/15 00:23:12;;;;;;;20.23;10.13;;;;;;;8.32;100.00;97781.66;5027462;28;20040;-57
2022/11/15 00:25:37;;;;;;;17.23;8.88;;;;;;;8.34;100.00;97777.25;5029744;28;20474;-59
2022/11/15 00:28:03;;;;;;;16.92;9.48;;;;;;;8.35;100.00;97778.97;5026833;28;20033;-60
2022/11/15 00:30:28;;;;;;;17.33;9.43;;;;;;;8.55;100.00;97775.69;5024566;28;20037;-59
2022/11/15 00:32:54;;;;;;;17.83;9.32;;;;;;;8.33;100.00;97780.78;5027887;28;20020;-57
2022/11/15 00:35:20;;;;;;;16.35;9.05;;;;;;;8.39;100.00;97778.78;5026164;28;20024;-56
2022/11/15 00:37:47;;;;;;;17.25;9.77;;;;;;;8.49;100.00;97787.13;5029445;28;20396;-59
2022/11/15 00:40:13;;;;;;;16.92;9.60;;;;;;;8.90;100.00;97786.53;5025571;28;20036;-59
2022/11/15 00:42:39;;;;;;;18.77;9.93;;;;;;;8.75;100.00;97787.91;5027801;28;20033;-60
2022/11/15 00:45:04;;;;;;;16.58;9.88;;;;;;;8.48;100.00;97781.06;5026051;28;20194;-58
2022/11/15 00:47:30;;;;;;;16.45;9.05;;;;;;;8.48;100.00;97781.06;5025780;28;20021;-56
2022/11/15 00:49:55;;;;;;;18.88;10.10;;;;;;;8.66;100.00;97774.38;5026294;28;20596;-57
2022/11/15 00:52:20;;;;;;;20.25;10.15;;;;;;;8.94;100.00;97770.72;5027837;28;20045;-56
2022/11/15 00:54:46;;;;;;;16.83;9.07;;;;;;;8.65;100.00;97772.66;5034668;28;20700;-58
2022/11/15 00:57:11;;;;;;;19.08;9.38;;;;;;;8.77;100.00;97770.53;5026550;28;20043;-59
2022/11/15 00:59:37;;;;;;;17.92;8.98;;;;;;;8.52;100.00;97768.81;5027081;28;20025;-59
2022/11/15 01:02:02;;;;;;;18.20;10.02;;;;;;;8.63;100.00;97764.06;5027043;28;20099;-60
2022/11/15 01:04:27;;;;;;;15.10;9.65;;;;;;;8.71;100.00;97765.53;5027200;28;20398;-58
2022/11/15 01:06:53;;;;;;;16.23;9.40;;;;;;;8.79;100.00;97769.56;5025865;28;20443;-58
2022/11/15 01:09:18;;;;;;;19.27;9.32;;;;;;;8.86;100.00;97770.19;5027311;28;20040;-58
2022/11/15 01:11:44;;;;;;;18.00;10.15;;;;;;;8.64;100.00;97765.78;5041902;28;20032;-59
2022/11/15 01:14:09;;;;;;;17.25;9.93;;;;;;;8.62;100.00;97772.78;5027015;28;20519;-58
2022/11/15 01:16:34;;;;;;;15.50;9.05;;;;;;;8.54;100.00;97758.38;5026924;28;20040;-58
2022/11/15 01:19:00;;;;;;;20.02;9.63;;;;;;;8.48;100.00;97759.44;5030188;28;20017;-55
2022/11/15 01:21:26;;;;;;;16.40;9.25;;;;;;;8.47;100.00;97760.34;5025935;28;20048;-56
2022/11/15 01:23:55;;;;;;;17.25;9.20;;;;;;;8.44;100.00;97768.25;5026340;28;20025;-56
2022/11/15 01:26:22;;;;;;;15.85;9.23;;;;;;;8.49;100.00;97761.13;5024261;28;20033;-57
2022/11/15 01:28:47;;;;;;;18.20;9.93;;;;;;;8.44;100.00;97753.50;5026789;28;20036;-58
2022/11/15 01:31:21;;;;;;;20.42;9.80;;;;;;;8.37;100.00;97756.34;5025285;28;20032;-56
2022/11/15 01:33:47;;;;;;;17.63;9.18;;;;;;;7.94;100.00;97750.06;5026005;28;20029;-56
2022/11/15 01:36:16;;;;;;;19.38;9.63;;;;;;;7.99;100.00;97746.41;5025708;28;20037;-57
2022/11/15 01:38:42;;;;;;;16.40;9.52;;;;;;;8.31;100.00;97752.22;5025064;28;20060;-57
2022/11/15 01:41:20;;;;;;;18.30;10.02;;;;;;;8.13;100.00;97752.88;5025338;28;20044;-56
2022/11/15 01:43:49;;;;;;;18.13;9.48;;;;;;;8.24;100.00;97751.59;5026164;28;20044;-57
2022/11/15 01:46:35;;;;;;;17.58;9.68;;;;;;;7.80;100.00;97746.19;5023534;28;20034;-58
2022/11/15 01:49:10;;;;;;;17.65;9.65;;;;;;;8.06;100.00;97740.09;5025784;28;20114;-57
2022/11/15 01:51:35;;;;;;;17.88;9.88;;;;;;;8.22;100.00;97732.63;5024321;28;20115;-57
2022/11/15 01:54:06;;;;;;;17.40;10.13;;;;;;;8.14;100.00;97734.63;5026225;28;20024;-56
2022/11/15 01:56:40;;;;;;;16.38;9.18;;;;;;;7.91;100.00;97738.88;5024978;28;20052;-56
2022/11/15 01:59:08;;;;;;;17.75;8.82;;;;;;;8.37;100.00;97732.97;5025236;28;20021;-59
2022/11/15 02:01:34;;;;;;;14.32;8.63;;;;;;;8.41;100.00;97729.34;5025281;28;20565;-55
2022/11/15 02:04:23;;;;;;;18.73;10.00;;;;;;;8.16;100.00;97722.44;5026689;28;20072;-56
2022/11/15 02:06:49;;;;;;;18.95;9.77;;;;;;;8.11;100.00;97719.16;5024644;28;20589;-57
2022/11/15 02:09:15;;;;;;;18.02;9.73;;;;;;;8.28;100.00;97713.34;5025305;28;20029;-56
2022/11/15 02:11:41;;;;;;;16.92;9.50;;;;;;;8.05;100.00;97709.84;5023792;28;20039;-57
2022/11/15 02:14:07;;;;;;;15.77;8.60;;;;;;;7.57;100.00;97701.97;5026813;28;20059;-59
2022/11/15 02:16:51;;;;;;;18.90;9.23;;;;;;;7.47;100.00;97697.09;5026654;28;20045;-59
2022/11/15 02:20:08;;;;;;;18.15;8.70;;;;;;;7.23;100.00;97688.38;5025230;28;20513;-58
2022/11/15 02:23:22;;;;;;;14.55;8.27;;;;;;;7.64;100.00;97688.75;5011240;28;20099;-58
2022/11/15 02:25:50;;;;;;;16.45;8.45;;;;;;;8.29;100.00;97692.53;5023455;28;20127;-58
2022/11/15 02:28:21;;;;;;;18.00;8.80;;;;;;;8.05;100.00;97686.47;5026886;28;20383;-57
2022/11/15 02:31:15;;;;;;;18.17;8.48;;;;;;;7.98;100.00;97681.56;5023114;28;20399;-56
2022/11/15 02:33:57;;;;;;;16.23;8.50;;;;;;;8.11;100.00;97682.78;5013004;28;20037;-56
2022/11/15 02:36:41;;;;;;;16.02;8.82;;;;;;;7.99;100.00;97675.44;5026166;28;20076;-57
2022/11/15 02:39:23;;;;;;;16.67;8.48;;;;;;;7.50;100.00;97676.25;5029037;28;20029;-60
2022/11/15 02:42:04;;;;;;;15.95;7.72;;;;;;;7.62;100.00;97667.19;5025787;28;20607;-57
2022/11/15 02:44:41;;;;;;;15.43;8.13;;;;;;;8.50;100.00;97669.25;5032698;28;20266;-56
2022/11/15 02:47:14;;;;;;;14.75;8.65;;;;;;;8.48;100.00;97666.72;5044522;28;20374;-55
2022/11/15 02:49:45;;;;;;;16.10;9.07;;;;;;;8.62;100.00;97667.94;5029497;28;20554;-57
2022/11/15 02:52:18;;;;;;;17.02;8.63;;;;;;;8.82;100.00;97669.75;5028840;28;20391;-57
2022/11/15 02:54:53;;;;;;;17.02;8.55;;;;;;;8.81;100.00;97662.88;5030631;28;20033;-56
2022/11/15 02:57:29;;;;;;;19.23;9.05;;;;;;;8.44;100.00;97665.13;5027383;28;20836;-56
2022/11/15 03:00:03;;;;;;;14.77;8.20;;;;;;;7.73;100.00;97656.44;5028134;28;20038;-55
2022/11/15 03:02:59;;;;;;;18.85;9.07;;;;;;;7.95;100.00;97647.88;5029725;28;20033;-55
2022/11/15 03:05:47;;;;;;;15.45;7.32;;;;;;;8.15;100.00;97648.00;5028259;28;20566;-56
2022/11/15 03:08:15;;;;;;;10.02;6.22;;;;;;;8.16;100.00;97649.72;5029392;28;20367;-57
2022/11/15 03:11:12;;;;;;;14.82;8.07;;;;;;;7.60;100.00;97644.78;5026514;28;20048;-57
2022/11/15 03:13:37;;;;;;;14.00;7.78;;;;;;;7.34;100.00;97636.16;5023423;28;20071;-56
2022/11/15 03:16:10;;;;;;;15.27;8.23;;;;;;;6.85;100.00;97625.63;5029235;28;20136;-58
2022/11/15 03:18:40;;;;;;;15.98;8.82;;;;;;;7.07;100.00;97628.38;5027857;28;20021;-58
2022/11/15 03:21:08;;;;;;;16.50;8.55;;;;;;;7.60;100.00;97629.22;5027057;28;20037;-56
2022/11/15 03:23:36;;;;;;;16.73;9.07;;;;;;;7.68;100.00;97625.47;5028777;28;20026;-55
2022/11/15 03:26:04;;;;;;;13.05;7.80;;;;;;;7.75;100.00;97623.47;5028493;28;20033;-58
2022/11/15 03:28:38;;;;;;;17.45;8.77;;;;;;;7.65;100.00;97624.72;5029450;28;20085;-56
2022/11/15 03:31:46;;;;;;;14.02;7.95;;;;;;;6.82;100.00;97624.88;5028484;28;20044;-58
2022/11/15 03:33:57;;;;;;;17.55;9.13;;;;;;;7.02;100.00;97616.47;5027519;28;20025;-55
2022/11/15 03:36:24;;;;;;;16.60;9.00;;;;;;;7.38;100.00;97624.75;5027808;28;20045;-56
2022/11/15 03:38:57;;;;;;;18.73;9.02;;;;;;;7.66;100.00;97629.00;5029658;28;20330;-55
2022/11/15 03:41:33;;;;;;;17.48;9.05;;;;;;;7.58;100.00;97625.81;5025630;28;20120;-60
2022/11/15 03:44:06;;;;;;;17.38;9.10;;;;;;;7.55;100.00;97625.94;5027675;28;20056;-55
2022/11/15 03:46:33;;;;;;;18.73;9.25;;;;;;;7.60;100.00;97630.06;5028546;28;20033;-58
2022/11/15 03:49:24;;;;;;;18.25;8.90;;;;;;;7.31;100.00;97623.28;5025867;28;20060;-55
2022/11/15 03:51:50;;;;;;;18.85;9.20;;;;;;;7.40;100.00;97617.75;5025761;28;20045;-55
2022/11/15 03:54:15;;;;;;;15.27;8.57;;;;;;;7.16;100.00;97614.25;5028076;28;20029;-56
2022/11/15 03:56:40;;;;;;;22.02;9.82;;;;;;;6.98;100.00;97610.53;5027104;28;20041;-57
2022/11/15 03:59:06;;;;;;;18.58;10.05;;;;;;;6.94;100.00;97603.75;5025647;28;20176;-57
2022/11/15 04:01:31;;;;;;;20.85;9.23;;;;;;;7.39;100.00;97610.91;5025669;28;20047;-56
2022/11/15 04:03:56;;;;;;;21.30;9.95;;;;;;;7.34;100.00;97605.00;5029281;28;20499;-58
2022/11/15 04:06:22;;;;;;;17.75;9.07;;;;;;;7.64;100.00;97602.25;5024956;28;20037;-58
2022/11/15 04:08:47;;;;;;;20.60;9.65;;;;;;;7.71;100.00;97608.91;5026825;28;20040;-57
2022/11/15 04:11:12;;;;;;;17.92;9.57;;;;;;;7.45;100.00;97595.09;5025527;28;20424;-59
2022/11/15 04:13:38;;;;;;;22.95;10.15;;;;;;;7.81;100.00;97601.63;5027001;28;20124;-59
2022/11/15 04:16:03;;;;;;;17.63;9.48;;;;;;;7.66;100.00;97597.84;5028573;28;20045;-59
2022/11/15 04:18:29;;;;;;;17.60;9.27;;;;;;;7.47;100.00;97601.09;5028201;28;20420;-58
2022/11/15 04:26:23;;;;;;;19.77;9.70;;;;;;;8.33;100.00;97614.47;5025526;28;20032;-60
2022/11/15 04:31:33;;;;;;;15.95;8.30;;;;;;;6.88;100.00;97599.63;5024115;28;20466;-59
2022/11/15 04:33:59;;;;;;;16.17;8.48;;;;;;;6.60;100.00;97599.66;5027374;28;20487;-58
2022/11/15 04:39:08;;;;;;;17.50;9.05;;;;;;;6.85;100.00;97599.69;5026660;28;20060;-57
2022/11/15 04:41:34;;;;;;;17.00;8.52;;;;;;;6.94;100.00;97599.41;5026950;28;20065;-59
2022/11/15 04:43:59;;;;;;;18.08;8.93;;;;;;;7.02;100.00;97595.72;5028964;28;20032;-56
2022/11/15 04:46:25;;;;;;;19.58;10.07;;;;;;;6.85;100.00;97601.44;5027039;28;20073;-59
2022/11/15 04:48:50;;;;;;;15.20;7.57;;;;;;;6.97;100.00;97602.81;5024742;28;20047;-57
2022/11/15 04:51:16;;;;;;;16.77;9.45;;;;;;;6.94;100.00;97601.16;5024436;28;20044;-56
2022/11/15 04:53:41;;;;;;;19.38;9.52;;;;;;;7.07;100.00;97599.84;5028299;28;20029;-58
2022/11/15 04:56:07;;;;;;;18.35;9.68;;;;;;;7.08;100.00;97601.56;5025246;28;20080;-57
2022/11/15 04:58:32;;;;;;;22.35;9.52;;;;;;;7.23;100.00;97605.38;5027858;28;20387;-57
2022/11/15 05:00:58;;;;;;;17.92;9.32;;;;;;;6.98;100.00;97600.16;5025903;28;20279;-57
2022/11/15 05:06:07;;;;;;;23.08;11.10;;;;;;;6.83;100.00;97585.09;5027270;28;20045;-56
2022/11/15 05:08:33;;;;;;;21.75;11.18;;;;;;;6.88;100.00;97584.06;5025575;28;20009;-58
2022/11/15 05:10:58;;;;;;;21.85;10.82;;;;;;;7.10;100.00;97585.94;5023783;28;20043;-56
2022/11/15 05:13:24;;;;;;;16.88;8.65;;;;;;;6.58;100.00;97591.09;5025466;28;20090;-57
2022/11/15 05:15:49;;;;;;;20.45;10.07;;;;;;;6.54;100.00;97581.69;5024571;28;20045;-57
2022/11/15 05:18:14;;;;;;;18.60;9.52;;;;;;;6.86;100.00;97579.84;5029027;28;20697;-55
2022/11/15 05:20:39;;;;;;;18.42;9.88;;;;;;;6.95;100.00;97580.38;5025673;28;20702;-59
2022/11/15 05:23:05;;;;;;;17.20;9.63;;;;;;;6.45;100.00;97571.63;5026324;28;20021;-60
2022/11/15 05:25:30;;;;;;;20.42;9.77;;;;;;;6.75;100.00;97570.66;5028666;28;20449;-60
2022/11/15 05:27:56;;;;;;;18.77;9.93;;;;;;;6.64;100.00;97570.16;5026183;28;20033;-61
2022/11/15 05:30:21;;;;;;;18.90;9.93;;;;;;;6.80;100.00;97583.47;5025425;28;20033;-60
2022/11/15 05:32:47;;;;;;;18.02;9.57;;;;;;;6.16;100.00;97573.38;5026160;28;20029;-58
2022/11/15 05:35:21;;;;;;;18.50;9.73;;;;;;;6.36;100.00;97571.03;5025029;28;20025;-57
2022/11/15 05:37:48;;;;;;;16.40;8.82;;;;;;;6.41;100.00;97567.44;5024846;28;20033;-58
2022/11/15 05:40:13;;;;;;;26.02;12.65;;;;;;;6.43;100.00;97570.81;5021483;28;20029;-58
2022/11/15 05:42:39;;;;;;;20.55;10.10;;;;;;;6.38;100.00;97568.38;5026819;28;20025;-58
2022/11/15 05:45:06;;;;;;;20.00;10.07;;;;;;;6.31;100.00;97564.28;5026031;28;20101;-58
2022/11/15 05:47:34;;;;;;;20.38;9.80;;;;;;;6.50;100.00;97569.72;5024830;28;20014;-59
2022/11/15 05:49:59;;;;;;;23.08;9.48;;;;;;;6.66;100.00;97563.16;5025050;28;20806;-58
2022/11/15 05:52:31;;;;;;;20.95;10.30;;;;;;;6.83;100.00;97569.56;5025854;28;20045;-58
2022/11/15 05:54:57;;;;;;;20.52;9.57;;;;;;;6.74;100.00;97565.50;5027061;28;20036;-58
2022/11/15 05:57:23;;;;;;;20.35;10.20;;;;;;;6.65;100.00;97571.00;5027179;28;20029;-60
2022/11/15 05:59:49;;;;;;;22.27;11.02;;;;;;;6.65;100.00;97573.59;5024137;28;20030;-57
2022/11/15 06:02:14;;;;;;;19.30;10.23;;;;;;;6.55;100.00;97570.44;5023118;28;20033;-56
2022/11/15 06:04:39;;;;;;;25.75;11.50;;;;;;;6.69;100.00;97567.41;5025464;28;20040;-57
2022/11/15 06:07:05;;;;;;;22.90;10.82;;;;;;;6.74;100.00;97571.53;5026447;28;20033;-56
2022/11/15 06:09:30;;;;;;;20.75;11.10;;;;;;;6.88;100.00;97572.84;5024471;28;20025;-55
2022/11/15 06:11:56;;;;;;;21.70;9.52;;;;;;;6.74;100.00;97575.88;5023833;28;20812;-58
2022/11/15 06:14:21;;;;;;;21.08;10.07;;;;;;;6.60;100.00;97573.75;5025485;28;20429;-58
2022/11/15 06:16:46;;;;;;;23.70;10.88;;;;;;;6.51;100.00;97579.22;5025068;28;20041;-59
2022/11/15 06:19:12;;;;;;;26.63;11.75;;;;;;;6.34;100.00;97583.19;5026466;28;21089;-58
2022/11/15 06:21:37;;;;;;;23.10;10.95;;;;;;;6.55;100.00;97581.66;5023002;28;20694;-56
2022/11/15 06:24:03;;;;;;;25.83;11.38;;;;;;;6.76;100.00;97579.25;5024640;28;20044;-57
2022/11/15 06:26:28;;;;;;;24.00;11.55;;;;;;;6.61;100.00;97575.41;5022073;28;20030;-59
2022/11/15 06:28:54;;;;;;;22.48;11.13;;;;;;;6.43;100.00;97576.84;5025696;28;20025;-57
2022/11/15 06:31:19;;;;;;;28.63;11.38;;;;;;;6.62;100.00;97584.06;5024360;28;20196;-56
2022/11/15 06:33:44;;;;;;;22.83;11.85;;;;;;;6.53;100.00;97580.00;5024773;28;20056;-58
2022/11/15 06:36:15;;;;;;;22.95;11.93;;;;;;;6.68;100.00;97587.28;5024928;28;20148;-59
2022/11/15 06:38:40;;;;;;;27.27;12.20;;;;;;;6.63;100.00;97583.16;5023176;28;20449;-58
2022/11/15 06:41:08;;;;;;;25.25;12.60;;;;;;;6.73;100.00;97585.41;5023316;28;20037;-58
2022/11/15 06:43:34;;;;;;;26.27;13.38;;;;;;;6.41;100.00;97582.97;5022644;28;20031;-58
2022/11/15 06:46:00;;;;;;;23.73;12.32;;;;;;;6.31;100.00;97588.44;5025464;28;20037;-60
2022/11/15 06:48:26;;;;;;;26.58;12.23;;;;;;;6.46;100.00;97581.09;5024238;28;20206;-58
2022/11/15 06:50:55;;;;;;;24.95;12.95;;;;;;;6.61;100.00;97580.59;5021558;28;20048;-57
2022/11/15 06:53:21;;;;;;;26.73;12.60;;;;;;;6.63;100.00;97573.63;5022699;28;20029;-57
2022/11/15 06:55:46;;;;;;;21.75;11.32;;;;;;;6.84;100.00;97573.84;5024096;28;20048;-56
2022/11/15 06:58:12;;;;;;;22.92;11.73;;;;;;;6.31;100.00;97579.84;5025726;28;20506;-57
2022/11/15 07:00:37;;;;;;;23.48;11.65;;;;;;;5.96;100.00;97577.41;5021074;28;20103;-56
2022/11/15 07:03:03;;;;;;;21.00;10.93;;;;;;;6.16;100.00;97573.38;5023038;28;20079;-59
2022/11/15 07:05:29;;;;;;;22.40;11.85;;;;;;;6.20;100.00;97574.97;5025688;28;20022;-57
2022/11/15 07:07:56;;;;;;;21.35;11.00;;;;;;;6.49;100.00;97575.84;5021686;28;20013;-60
2022/11/15 07:10:23;;;;;;;344.88;25.60;;;;;;;7.17;100.00;97576.19;5023069;28;20036;-58
2022/11/15 07:12:49;;;;;;;22.80;11.73;;;;;;;8.30;100.00;97574.66;5025007;28;20022;-60
2022/11/15 07:15:19;;;;;;;24.80;11.95;;;;;;;8.87;100.00;97574.22;5024036;28;20021;-58
2022/11/15 07:17:45;;;;;;;35.70;13.77;;;;;;;11.01;100.00;97569.81;5025283;28;20037;-60
2022/11/15 07:20:13;;;;;;;21.75;12.40;;;;;;;12.07;100.00;97579.19;5023978;28;20068;-60
2022/11/15 07:22:38;;;;;;;15.23;9.63;;;;;;;12.70;100.00;97588.81;5025029;28;20021;-57
2022/11/15 07:25:04;;;;;;;14.90;9.15;;;;;;;13.93;100.00;97594.78;5027690;28;20036;-57
2022/11/15 07:27:29;;;;;;;16.52;9.48;;;;;;;14.04;100.00;97604.59;5028699;28;20041;-57
2022/11/15 07:29:54;;;;;;;14.00;8.70;;;;;;;14.53;100.00;97603.31;5029909;28;20033;-59
2022/11/15 07:32:20;;;;;;;13.00;7.88;;;;;;;14.46;100.00;97606.34;5027859;28;20395;-58
2022/11/15 07:34:46;;;;;;;10.38;7.35;;;;;;;14.17;100.00;97599.44;5030339;28;20667;-58
2022/11/15 07:37:11;;;;;;;13.20;7.75;;;;;;;11.49;100.00;97603.97;5028813;28;20513;-57
2022/11/15 07:39:37;;;;;;;15.30;8.43;;;;;;;12.41;100.00;97599.13;5030476;28;20037;-58
2022/11/15 07:44:46;;;;;;;12.98;8.57;;;;;;;11.20;100.00;97593.22;5029077;28;20720;-60
2022/11/15 07:47:12;;;;;;;14.32;8.48;;;;;;;9.81;100.00;97584.09;5025772;28;20578;-57
2022/11/15 07:49:37;;;;;;;14.93;8.75;;;;;;;9.98;100.00;97580.72;5026105;28;20060;-59
2022/11/15 07:52:03;;;;;;;13.13;7.72;;;;;;;10.00;100.00;97578.03;5028120;28;20038;-57
2022/11/15 07:54:28;;;;;;;13.20;8.10;;;;;;;9.58;100.00;97572.06;5027558;28;20025;-57
2022/11/15 07:56:54;;;;;;;13.73;8.02;;;;;;;9.46;100.00;97572.59;5026465;28;20077;-59
2022/11/15 07:59:19;;;;;;;13.25;8.27;;;;;;;9.57;100.00;97564.31;5025857;28;20112;-57
2022/11/15 08:01:44;;;;;;;13.30;7.97;;;;;;;9.71;100.00;97561.97;5027907;28;20055;-63
2022/11/15 08:04:10;;;;;;;16.17;8.25;;;;;;;9.66;100.00;97558.69;5028020;28;20065;-58
2022/11/15 08:06:36;;;;;;;14.00;8.15;;;;;;;9.76;100.00;97549.59;5027803;28;20445;-58
2022/11/15 08:09:01;;;;;;;17.50;8.45;;;;;;;9.90;100.00;97551.53;5028729;28;20552;-59
2022/11/15 08:11:27;;;;;;;14.00;8.63;;;;;;;10.08;100.00;97544.66;5027040;28;20064;-59
2022/11/15 08:13:52;;;;;;;13.48;8.15;;;;;;;9.48;100.00;97549.09;5029967;28;20032;-59
2022/11/15 08:16:17;;;;;;;15.23;9.05;;;;;;;10.14;100.00;97541.75;5028633;28;20160;-57
2022/11/15 08:18:42;;;;;;;18.38;9.73;;;;;;;10.12;100.00;97537.53;5029598;28;20151;-58
2022/11/15 08:21:09;;;;;;;16.50;8.80;;;;;;;10.34;100.00;97532.19;5027320;28;20764;-58
2022/11/15 08:23:35;;;;;;;16.30;8.85;;;;;;;9.90;100.00;97530.69;5029346;28;20083;-58
2022/11/15 08:26:02;;;;;;;18.35;9.00;;;;;;;10.84;100.00;97539.31;5028575;28;20123;-58
2022/11/15 08:28:28;;;;;;;13.43;7.53;;;;;;;11.52;100.00;97541.13;5028246;28;20625;-57
2022/11/15 08:30:54;;;;;;;14.18;8.20;;;;;;;9.93;100.00;97529.75;5025746;28;20049;-58
2022/11/15 08:33:19;;;;;;;15.27;7.85;;;;;;;10.89;100.00;97528.66;5027142;28;20550;-59
2022/11/15 08:35:45;;;;;;;13.40;8.05;;;;;;;10.82;100.00;97525.50;5028253;28;20053;-57
2022/11/15 08:38:10;;;;;;;16.25;8.65;;;;;;;11.15;100.00;97527.34;5027673;28;20033;-57
2022/11/15 08:40:36;;;;;;;13.38;8.05;;;;;;;11.13;100.00;97523.97;5026534;28;20070;-57
2022/11/15 08:43:02;;;;;;;13.48;7.88;;;;;;;11.57;100.00;97518.22;5029170;28;20021;-57
2022/11/15 08:45:29;;;;;;;14.40;8.00;;;;;;;12.01;100.00;97517.66;5027247;28;20208;-59
2022/11/15 08:47:55;;;;;;;12.77;7.53;;;;;;;12.04;100.00;97522.72;5028759;28;20073;-59
2022/11/15 08:50:21;;;;;;;15.43;7.65;;;;;;;12.78;100.00;97520.38;5007298;28;20431;-57
2022/11/15 08:52:50;;;;;;;11.60;7.75;;;;;;;12.67;100.00;97526.22;5027767;28;20029;-57
2022/11/15 08:55:15;;;;;;;11.13;7.45;;;;;;;12.73;100.00;97523.22;5027103;28;20041;-57
2022/11/15 08:57:40;;;;;;;11.80;7.18;;;;;;;13.22;100.00;97517.75;5027316;28;20061;-58
2022/11/15 09:00:06;;;;;;;12.50;6.43;;;;;;;13.04;100.00;97516.22;5025334;28;20517;-58
2022/11/15 09:02:32;;;;;;;13.30;6.53;;;;;;;12.96;100.00;97518.44;5027876;28;20036;-59
2022/11/15 09:04:57;;;;;;;10.88;6.75;;;;;;;13.82;100.00;97516.78;5025337;28;21044;-59
2022/11/15 09:07:22;;;;;;;10.05;7.00;;;;;;;13.90;100.00;97512.84;5027086;28;20045;-59
2022/11/15 09:09:48;;;;;;;11.05;6.60;;;;;;;13.31;100.00;97508.53;5027253;28;20033;-60
2022/11/15 09:12:13;;;;;;;13.40;6.65;;;;;;;13.13;100.00;97502.59;5026681;28;20073;-60
2022/11/15 09:14:38;;;;;;;14.70;6.47;;;;;;;13.36;100.00;97503.88;5024983;28;20195;-61
2022/11/15 09:17:08;;;;;;;11.20;6.70;;;;;;;14.17;100.00;97505.00;5026750;28;20250;-58
2022/11/15 09:19:33;;;;;;;10.98;6.78;;;;;;;14.19;100.00;97508.38;5027261;28;20017;-56
2022/11/15 09:21:59;;;;;;;10.65;5.78;;;;;;;14.46;100.00;97504.00;5026074;28;20037;-58
2022/11/15 09:24:24;;;;;;;11.77;6.82;;;;;;;14.04;100.00;97510.19;5027244;28;20059;-59
2022/11/15 09:26:51;;;;;;;11.05;6.65;;;;;;;13.94;100.00;97499.44;5026036;28;20043;-57
2022/11/15 09:29:17;;;;;;;11.15;6.20;;;;;;;14.17;100.00;97505.00;5026291;28;20112;-60
2022/11/15 09:31:42;;;;;;;11.55;6.05;;;;;;;14.35;100.00;97495.97;5024360;28;20060;-58
2022/11/15 09:34:08;;;;;;;11.93;6.50;;;;;;;14.23;100.00;97499.38;5028330;28;20033;-58
2022/11/15 09:36:34;;;;;;;8.05;5.60;;;;;;;14.96;100.00;97506.03;5026295;28;20128;-56
2022/11/15 09:39:00;;;;;;;11.27;5.72;;;;;;;14.77;100.00;97503.81;5027197;28;20074;-59
2022/11/15 09:41:57;;;;;;;9.05;5.70;;;;;;;15.22;100.00;97499.06;5025521;28;20556;-58
2022/11/15 09:44:40;;;;;;;10.18;5.47;;;;;;;14.91;100.00;97495.03;5027155;28;20087;-57
2022/11/15 09:47:21;;;;;;;10.40;5.70;;;;;;;15.37;100.00;97494.53;5025903;28;20079;-57
2022/11/15 09:49:54;;;;;;;9.57;5.47;;;;;;;15.57;100.00;97486.13;5025983;28;20525;-59
2022/11/15 09:52:21;;;;;;;8.68;5.20;;;;;;;15.87;100.00;97490.19;5028266;28;20061;-58
2022/11/15 09:54:51;;;;;;;12.27;5.68;;;;;;;15.85;100.00;97486.84;5026803;28;20025;-60
2022/11/15 09:57:34;;;;;;;7.88;5.40;;;;;;;15.86;100.00;97488.53;5027892;28;20037;-58
2022/11/15 10:00:22;;;;;;;8.07;5.30;;;;;;;16.12;100.00;97481.41;5024838;28;20016;-59
2022/11/15 10:03:11;;;;;;;10.32;5.40;;;;;;;16.18;100.00;97470.44;5026099;28;20049;-60
2022/11/15 10:05:43;;;;;;;7.93;5.10;;;;;;;16.38;100.00;97463.72;5026403;28;20040;-60
2022/11/15 10:08:36;;;;;;;9.55;5.30;;;;;;;16.76;98.60;97470.59;5027983;28;20584;-57
2022/11/15 10:11:09;;;;;;;8.27;5.32;;;;;;;16.73;99.33;97452.38;5026100;28;20107;-58
2022/11/15 10:13:40;;;;;;;6.30;4.40;;;;;;;16.31;95.53;97459.88;5026538;28;20026;-59
2022/11/15 10:16:27;;;;;;;6.47;4.03;;;;;;;16.44;87.59;97456.34;5025430;28;20060;-61
2022/11/15 10:19:04;;;;;;;5.53;3.53;;;;;;;16.59;84.62;97449.94;5028032;28;20029;-58
2022/11/15 10:21:38;;;;;;;5.47;3.60;;;;;;;16.49;82.50;97449.78;5024972;28;20052;-58
2022/11/15 10:24:11;;;;;;;6.45;3.65;;;;;;;17.11;83.09;97450.47;5041573;28;20025;-58
2022/11/15 10:26:37;;;;;;;7.05;3.90;;;;;;;16.89;81.44;97446.84;5025230;28;20041;-58
2022/11/15 10:29:02;;;;;;;7.45;3.55;;;;;;;16.41;80.98;97441.59;5023338;28;20025;-58
2022/11/15 10:31:28;;;;;;;7.35;3.72;;;;;;;16.53;80.51;97434.59;5025876;28;20036;-57
2022/11/15 10:34:23;;;;;;;5.50;3.38;;;;;;;16.98;80.29;97424.22;5026764;28;20055;-58
2022/11/15 10:36:57;;;;;;;7.00;3.58;;;;;;;17.12;78.54;97431.91;5025169;28;20041;-58
2022/11/15 10:39:23;;;;;;;8.43;3.60;;;;;;;16.75;77.99;97420.66;5025560;28;20022;-59
2022/11/15 10:41:49;;;;;;;4.97;3.40;;;;;;;16.95;79.69;97419.19;5028075;28;20069;-58
2022/11/15 10:44:19;;;;;;;6.85;3.78;;;;;;;17.21;78.91;97411.91;5024952;28;20102;-58
2022/11/15 10:47:05;;;;;;;6.13;3.65;;;;;;;16.93;78.54;97415.84;5025632;28;20036;-60
2022/11/15 10:49:32;;;;;;;5.93;3.60;;;;;;;16.94;77.42;97406.97;5026021;28;20521;-59
2022/11/15 10:52:19;;;;;;;4.65;3.22;;;;;;;17.25;76.70;97396.69;5025736;28;20041;-57
2022/11/15 10:54:56;;;;;;;6.22;3.40;;;;;;;16.87;76.56;97403.13;5025834;28;20028;-60
2022/11/15 10:57:53;;;;;;;9.80;3.30;;;;;;;17.46;77.05;97392.41;5026159;28;20037;-59
2022/11/15 11:00:19;;;;;;;6.22;3.30;;;;;;;17.30;75.26;97397.19;5022524;28;20047;-58
2022/11/15 11:03:01;;;;;;;4.55;3.28;;;;;;;17.61;76.36;97387.72;5029896;28;20037;-60
2022/11/15 11:05:33;;;;;;;7.28;3.05;;;;;;;17.21;75.62;97385.56;5029102;28;20539;-59
2022/11/15 11:08:15;;;;;;;4.63;2.80;;;;;;;17.30;75.41;97386.66;5031333;28;20021;-59
2022/11/15 11:10:58;;;;;;;5.07;3.10;;;;;;;17.36;76.53;97369.50;5028407;28;20040;-60
2022/11/15 11:13:35;;;;;;;7.20;3.22;;;;;;;17.42;75.60;97383.03;5029646;28;20040;-59
2022/11/15 11:16:18;;;;;;;5.15;2.85;;;;;;;17.25;76.58;97373.00;5029131;28;20099;-60
2022/11/15 11:19:02;;;;;;;5.20;2.90;;;;;;;17.14;76.42;97372.00;5030361;28;20528;-59
2022/11/15 11:21:56;;;;;;;4.72;2.90;;;;;;;17.49;77.44;97368.41;5029601;28;20582;-58
2022/11/15 11:24:36;;;;;;;5.35;2.88;;;;;;;17.94;74.69;97369.31;5022857;28;20072;-59
2022/11/15 11:27:20;;;;;;;6.13;2.75;;;;;;;18.22;73.45;97365.28;5031260;28;20071;-59
2022/11/15 11:30:21;;;;;;;5.53;2.97;;;;;;;17.81;72.94;97362.38;5028350;28;20556;-60
2022/11/15 11:33:13;;;;;;;4.47;2.80;;;;;;;18.03;73.54;97364.16;5028911;28;20045;-60
2022/11/15 11:35:57;;;;;;;3.83;2.53;;;;;;;17.70;74.25;97351.84;5028934;28;20075;-58
2022/11/15 11:39:05;;;;;;;4.95;2.65;;;;;;;17.68;72.27;97349.34;5030017;28;20029;-61
2022/11/15 11:41:51;;;;;;;3.45;2.35;;;;;;;17.83;72.64;97341.97;5023388;28;20043;-61
2022/11/15 11:44:28;;;;;;;7.03;2.70;;;;;;;17.71;71.91;97338.53;5030765;28;20119;-60
2022/11/15 11:46:59;;;;;;;5.63;2.38;;;;;;;17.73;72.73;97336.59;5029071;28;20796;-59
2022/11/15 11:49:57;;;;;;;5.28;2.28;;;;;;;17.91;71.92;97336.13;5027992;28;20140;-56
2022/11/15 11:52:42;;;;;;;3.85;2.40;;;;;;;17.35;71.89;97331.78;5030444;28;20107;-58
2022/11/15 11:55:30;;;;;;;6.63;2.35;;;;;;;17.44;73.44;97324.91;5028409;28;20120;-57